Time;durP1;ratioP1;P1;durP2;ratioP2;P2;SDS_P1;SDS_P2;PMS_P1;PMS_P2;Temp;Humidity;BMP_temperature;BMP_pressure;BME280_temperature;BME280_humidity;BME280_pressure;Samples;Min_cycle;Max_cycle;Signal;HPM_P1;HPM_P2
2023/07/04 00:01:17;;;;;;;12.60;5.55;;;;;;;25.77;50.56;99356.47;4431384;32;33998;-61
2023/07/04 00:03:50;;;;;;;12.55;5.25;;;;;;;25.62;50.96;99355.94;4430826;32;33923;-61
2023/07/04 00:06:18;;;;;;;10.60;5.15;;;;;;;25.60;51.81;99369.06;4433127;32;34428;-61
2023/07/04 00:08:48;;;;;;;9.93;5.12;;;;;;;25.54;51.31;99368.03;4427055;32;33632;-61
2023/07/04 00:11:16;;;;;;;9.35;4.87;;;;;;;25.63;51.14;99376.84;4432235;32;33633;-61
2023/07/04 00:13:44;;;;;;;9.13;5.00;;;;;;;25.67;50.95;99375.31;4432880;32;33574;-61
2023/07/04 00:16:14;;;;;;;10.98;5.05;;;;;;;25.69;50.82;99363.09;4431366;32;33062;-61
2023/07/04 00:18:42;;;;;;;10.65;4.12;;;;;;;25.66;51.40;99366.28;4432091;32;33460;-61
2023/07/04 00:21:14;;;;;;;11.65;5.00;;;;;;;25.70;52.23;99363.91;4432571;32;34015;-61
2023/07/04 00:23:45;;;;;;;11.45;5.37;;;;;;;25.73;51.91;99364.31;4432448;32;33940;-61
2023/07/04 00:26:17;;;;;;;9.60;4.53;;;;;;;25.64;52.32;99368.37;4433211;32;33107;-61
2023/07/04 00:28:45;;;;;;;10.02;5.40;;;;;;;25.72;52.34;99365.38;4412514;32;34815;-61
2023/07/04 00:31:17;;;;;;;10.50;5.72;;;;;;;25.71;52.32;99369.16;4412975;32;34938;-62
2023/07/04 00:33:46;;;;;;;9.75;4.97;;;;;;;25.75;52.36;99367.69;4407540;32;34001;-62
2023/07/04 00:36:16;;;;;;;11.50;5.72;;;;;;;25.68;52.81;99369.63;4415509;32;32861;-61
2023/07/04 00:38:49;;;;;;;10.77;5.50;;;;;;;25.70;53.23;99369.41;4415957;32;34481;-61
2023/07/04 00:41:22;;;;;;;6.65;4.30;;;;;;;25.69;53.49;99371.31;4413208;32;34080;-61
2023/07/04 00:44:13;;;;;;;10.40;4.90;;;;;;;25.66;53.39;99370.91;4412451;32;33769;-61
2023/07/04 00:46:53;;;;;;;10.20;4.95;;;;;;;25.50;52.78;99364.91;4413964;32;35313;-61
2023/07/04 00:49:37;;;;;;;10.45;5.55;;;;;;;25.60;51.99;99361.66;4399316;32;34062;-61
2023/07/04 00:52:11;;;;;;;9.07;4.00;;;;;;;25.63;51.74;99369.44;4413404;32;34195;-61
2023/07/04 00:54:43;;;;;;;10.13;3.90;;;;;;;25.66;50.86;99363.53;4415369;32;34193;-61
2023/07/04 00:57:13;;;;;;;11.10;4.35;;;;;;;25.46;51.11;99366.41;4402869;32;33490;-61
2023/07/04 00:59:44;;;;;;;9.52;4.47;;;;;;;25.55;50.70;99364.22;4420628;32;33782;-61
2023/07/04 01:02:18;;;;;;;8.50;3.97;;;;;;;25.67;51.05;99365.19;4421757;32;33913;-61
2023/07/04 01:04:48;;;;;;;9.10;4.10;;;;;;;25.64;50.37;99368.37;4432601;32;33082;-61
2023/07/04 01:07:39;;;;;;;9.10;4.50;;;;;;;25.66;50.12;99370.91;4434013;32;33510;-61
2023/07/04 01:10:11;;;;;;;9.02;3.85;;;;;;;25.66;50.17;99371.75;4423292;32;33621;-61
2023/07/04 01:12:39;;;;;;;6.87;3.25;;;;;;;25.64;49.95;99362.06;4432776;32;35035;-61
2023/07/04 01:15:08;;;;;;;8.00;3.33;;;;;;;25.63;49.80;99361.22;4427867;32;34736;-61
2023/07/04 01:17:36;;;;;;;8.45;3.40;;;;;;;25.40;49.95;99361.81;4432046;32;33087;-61
2023/07/04 01:20:09;;;;;;;10.15;4.25;;;;;;;25.42;50.29;99353.34;4431976;32;33781;-61
2023/07/04 01:22:58;;;;;;;9.27;4.32;;;;;;;25.46;50.20;99354.63;4431807;32;35344;-61
2023/07/04 01:25:32;;;;;;;8.55;3.58;;;;;;;25.46;50.54;99357.34;4438185;32;34671;-61
2023/07/04 01:28:02;;;;;;;13.73;4.93;;;;;;;25.46;50.57;99357.34;4443957;32;33211;-61
2023/07/04 01:30:32;;;;;;;8.25;3.80;;;;;;;25.44;50.69;99364.94;4432791;32;33878;-61
2023/07/04 01:33:00;;;;;;;5.47;3.40;;;;;;;25.49;50.80;99365.09;4432762;32;35143;-61
2023/07/04 01:35:28;;;;;;;8.55;4.00;;;;;;;25.45;51.07;99370.19;4433611;32;33786;-62
2023/07/04 01:37:56;;;;;;;8.07;4.00;;;;;;;25.27;51.95;99376.44;4431136;32;33301;-61
2023/07/04 01:40:24;;;;;;;11.35;4.32;;;;;;;25.36;51.91;99379.75;4435050;32;34505;-61
2023/07/04 01:42:53;;;;;;;9.73;4.07;;;;;;;25.14;53.38;99384.72;4434384;32;36107;-61
2023/07/04 01:45:20;;;;;;;13.65;4.53;;;;;;;25.19;53.41;99393.09;4433886;32;33914;-61
2023/07/04 01:47:48;;;;;;;6.62;3.85;;;;;;;25.16;53.67;99385.31;4433835;32;35944;-61
2023/07/04 01:50:16;;;;;;;6.28;3.65;;;;;;;25.34;53.25;99392.81;4434954;32;34705;-61
2023/07/04 01:52:43;;;;;;;8.70;3.60;;;;;;;25.32;52.87;99403.16;4432392;32;34088;-61
2023/07/04 01:55:13;;;;;;;7.30;3.90;;;;;;;25.25;52.84;99402.34;4433659;32;34614;-61
2023/07/04 01:57:42;;;;;;;7.18;3.85;;;;;;;25.24;53.15;99409.72;4433064;32;33438;-62
2023/07/04 02:00:12;;;;;;;6.30;3.87;;;;;;;25.23;52.96;99421.75;4432224;32;34787;-61
2023/07/04 02:02:53;;;;;;;18.45;4.90;;;;;;;25.21;53.61;99417.53;4433257;32;34786;-62
2023/07/04 02:05:21;;;;;;;16.83;5.40;;;;;;;25.17;54.18;99427.22;4432428;32;33411;-61
2023/07/04 02:07:49;;;;;;;6.35;3.35;;;;;;;24.98;54.86;99437.19;4434634;32;33403;-61
2023/07/04 02:10:17;;;;;;;8.35;4.35;;;;;;;24.81;54.51;99453.22;4432468;32;33731;-61
2023/07/04 02:12:44;;;;;;;9.13;4.93;;;;;;;24.56;53.99;99459.37;4413761;32;33332;-61
2023/07/04 02:15:12;;;;;;;8.10;4.75;;;;;;;24.27;54.54;99460.63;4415136;32;33501;-61
2023/07/04 02:17:40;;;;;;;11.48;5.22;;;;;;;24.23;54.89;99461.25;4417542;32;34189;-61
2023/07/04 02:20:08;;;;;;;9.43;3.85;;;;;;;24.36;54.56;99463.97;4414236;32;33847;-62
2023/07/04 02:22:40;;;;;;;7.75;3.62;;;;;;;24.52;54.07;99462.75;4415815;32;35139;-62
2023/07/04 02:25:08;;;;;;;8.07;4.37;;;;;;;24.66;53.21;99469.06;4412543;32;33838;-61
2023/07/04 02:27:36;;;;;;;9.75;5.30;;;;;;;24.70;53.02;99481.25;4413795;32;33606;-61
2023/07/04 02:30:04;;;;;;;12.05;5.78;;;;;;;24.66;53.14;99480.84;4416679;32;33696;-61
2023/07/04 02:32:32;;;;;;;13.70;6.80;;;;;;;24.46;53.73;99483.56;4417160;32;33901;-62
2023/07/04 02:35:00;;;;;;;12.18;5.32;;;;;;;24.15;55.28;99489.66;4415827;32;34874;-62
2023/07/04 02:37:28;;;;;;;9.32;4.82;;;;;;;24.33;54.62;99483.53;4415188;32;34343;-62
2023/07/04 02:39:57;;;;;;;11.60;4.93;;;;;;;24.32;54.78;99498.28;4417420;32;34553;-62
2023/07/04 02:42:25;;;;;;;12.85;6.95;;;;;;;24.27;54.94;99500.78;4417774;32;35563;-62
2023/07/04 02:44:54;;;;;;;12.20;6.20;;;;;;;24.32;54.82;99510.06;4417013;32;34663;-62
2023/07/04 02:47:26;;;;;;;10.75;5.57;;;;;;;24.43;54.64;99511.38;4416406;32;32989;-62
2023/07/04 02:49:55;;;;;;;12.82;5.90;;;;;;;24.16;55.64;99507.72;4409586;32;33509;-61
2023/07/04 02:52:24;;;;;;;10.35;5.22;;;;;;;24.08;56.21;99518.88;4435170;32;34064;-61
2023/07/04 02:54:52;;;;;;;8.20;4.53;;;;;;;23.88;57.02;99519.69;4433590;32;33664;-61
2023/07/04 02:57:22;;;;;;;10.60;5.47;;;;;;;23.55;58.51;99527.72;4433705;32;34237;-61
2023/07/04 02:59:50;;;;;;;11.25;5.47;;;;;;;23.66;58.55;99526.31;4432887;32;34954;-61
2023/07/04 03:02:18;;;;;;;11.70;4.95;;;;;;;23.82;58.09;99525.09;4435806;32;33957;-61
2023/07/04 03:04:47;;;;;;;11.48;6.07;;;;;;;23.54;58.90;99525.22;4433438;32;33750;-61
2023/07/04 03:07:15;;;;;;;9.68;4.93;;;;;;;23.81;58.01;99518.81;4432612;32;34209;-61
2023/07/04 03:09:43;;;;;;;9.10;4.05;;;;;;;23.87;57.73;99526.19;4433799;32;33964;-61
2023/07/04 03:12:12;;;;;;;8.80;4.20;;;;;;;23.72;58.41;99525.50;4436253;32;33836;-61
2023/07/04 03:14:39;;;;;;;12.57;5.53;;;;;;;23.45;59.32;99522.66;4434481;32;33231;-60
2023/07/04 03:17:07;;;;;;;11.57;4.70;;;;;;;23.70;58.51;99524.88;4434565;32;31935;-61
2023/07/04 03:19:36;;;;;;;11.27;5.25;;;;;;;23.70;58.98;99512.06;4424878;32;34649;-61
2023/07/04 03:22:04;;;;;;;10.45;5.78;;;;;;;23.85;58.71;99519.22;4432315;32;35699;-61
2023/07/04 03:24:32;;;;;;;9.00;4.47;;;;;;;23.92;58.99;99512.75;4431806;32;35166;-61
2023/07/04 03:27:00;;;;;;;12.10;6.22;;;;;;;23.91;59.50;99518.41;4433827;32;33676;-61
2023/07/04 03:29:27;;;;;;;9.90;4.75;;;;;;;24.02;59.23;99509.62;4433864;32;34955;-61
2023/07/04 03:31:55;;;;;;;11.07;6.03;;;;;;;23.93;59.87;99508.13;4436368;32;33587;-61
2023/07/04 03:34:24;;;;;;;10.25;5.18;;;;;;;24.05;59.24;99511.94;4435594;32;35012;-61
2023/07/04 03:36:51;;;;;;;10.30;5.53;;;;;;;24.14;59.08;99507.97;4435054;32;34442;-62
2023/07/04 03:39:19;;;;;;;11.63;5.68;;;;;;;24.20;59.02;99503.53;4434020;32;33863;-61
2023/07/04 03:41:48;;;;;;;11.45;4.85;;;;;;;24.27;58.90;99496.19;4435046;32;35230;-61
2023/07/04 03:44:15;;;;;;;9.15;4.78;;;;;;;24.14;59.30;99498.87;4434299;32;33884;-61
2023/07/04 03:46:43;;;;;;;9.82;3.67;;;;;;;24.30;58.68;99503.09;4434861;32;34324;-61
2023/07/04 03:49:11;;;;;;;13.02;4.85;;;;;;;24.27;58.46;99504.41;4433451;32;34804;-61
2023/07/04 03:51:39;;;;;;;9.38;4.85;;;;;;;24.29;58.49;99501.44;4435293;32;34342;-61
2023/07/04 03:54:06;;;;;;;10.05;4.80;;;;;;;24.27;58.39;99500.78;4434688;32;34228;-61
2023/07/04 03:56:34;;;;;;;8.82;4.90;;;;;;;24.27;58.15;99498.94;4433370;32;33885;-61
2023/07/04 03:59:02;;;;;;;9.20;4.47;;;;;;;24.09;58.32;99507.72;4435423;32;35025;-61
2023/07/04 04:01:29;;;;;;;14.87;6.18;;;;;;;24.06;58.27;99502.69;4433265;32;34001;-61
2023/07/04 04:03:57;;;;;;;7.40;3.65;;;;;;;24.06;58.39;99510.03;4434326;32;33879;-61
2023/07/04 04:06:25;;;;;;;10.25;5.12;;;;;;;24.02;58.67;99506.03;4432768;32;32975;-61
2023/07/04 04:08:52;;;;;;;12.27;6.10;;;;;;;23.98;59.06;99500.16;4434717;32;33795;-61
2023/07/04 04:11:20;;;;;;;16.05;5.47;;;;;;;24.05;58.97;99500.16;4431442;32;33950;-61
2023/07/04 04:13:48;;;;;;;11.63;5.10;;;;;;;24.04;58.87;99504.75;4433428;32;35245;-62
2023/07/04 04:16:16;;;;;;;10.80;4.65;;;;;;;24.00;59.00;99500.78;4434280;32;33713;-61
2023/07/04 04:18:43;;;;;;;9.60;4.43;;;;;;;24.03;59.08;99505.00;4433367;32;33418;-61
2023/07/04 04:21:11;;;;;;;9.05;4.55;;;;;;;24.05;58.74;99508.38;4431717;32;35026;-61
2023/07/04 04:23:38;;;;;;;8.02;4.00;;;;;;;24.06;58.93;99510.88;4434713;32;34415;-61
2023/07/04 04:26:07;;;;;;;12.93;5.72;;;;;;;24.03;59.10;99497.63;4433342;32;34203;-61
2023/07/04 04:28:34;;;;;;;7.87;4.43;;;;;;;23.97;59.41;99498.44;4435821;32;33726;-61
2023/07/04 04:31:02;;;;;;;8.32;4.32;;;;;;;24.09;59.10;99501.44;4431290;32;34678;-61
2023/07/04 04:33:29;;;;;;;7.10;3.80;;;;;;;24.13;59.06;99499.94;4433319;32;34569;-62
2023/07/04 04:35:57;;;;;;;9.65;4.25;;;;;;;24.11;59.37;99489.25;4433620;32;33025;-62
2023/07/04 04:38:24;;;;;;;11.55;4.85;;;;;;;24.15;59.40;99485.03;4431996;32;33690;-61
2023/07/04 04:40:53;;;;;;;8.68;4.97;;;;;;;24.16;59.53;99485.88;4432640;32;34147;-61
2023/07/04 04:43:21;;;;;;;8.90;4.90;;;;;;;24.13;59.60;99486.28;4433920;32;33654;-61
2023/07/04 04:45:48;;;;;;;10.57;4.55;;;;;;;24.06;59.26;99494.47;4433620;32;33404;-61
2023/07/04 04:48:19;;;;;;;9.48;5.10;;;;;;;24.04;58.84;99496.56;4432536;32;33601;-62
2023/07/04 04:50:47;;;;;;;15.68;4.97;;;;;;;24.03;59.51;99515.91;4433711;32;33879;-61
2023/07/04 04:53:15;;;;;;;9.60;5.20;;;;;;;24.03;59.48;99514.03;4432709;32;33646;-61
2023/07/04 04:55:43;;;;;;;13.62;5.45;;;;;;;24.07;59.53;99514.44;4432142;32;33650;-61
2023/07/04 04:58:10;;;;;;;9.55;4.55;;;;;;;24.05;59.60;99522.03;4433615;32;34582;-61
2023/07/04 05:00:38;;;;;;;9.43;4.22;;;;;;;24.05;60.04;99522.03;4423980;32;34386;-62
2023/07/04 05:03:06;;;;;;;6.90;4.68;;;;;;;24.07;60.29;99522.66;4431150;32;34135;-62
2023/07/04 05:05:33;;;;;;;11.52;5.30;;;;;;;24.10;59.93;99528.53;4436253;32;33372;-62
2023/07/04 05:08:01;;;;;;;12.82;5.43;;;;;;;24.15;59.55;99533.41;4435369;32;33847;-63
2023/07/04 05:10:29;;;;;;;8.77;4.75;;;;;;;24.04;60.14;99526.63;4435278;32;33995;-63
2023/07/04 05:12:57;;;;;;;15.93;4.93;;;;;;;24.09;60.16;99524.12;4436923;32;34517;-61
2023/07/04 05:15:25;;;;;;;7.80;3.87;;;;;;;24.23;59.60;99527.72;4436173;32;34214;-62
2023/07/04 05:17:53;;;;;;;16.20;5.80;;;;;;;24.26;59.59;99523.72;4436773;32;33804;-62
2023/07/04 05:20:24;;;;;;;9.40;5.07;;;;;;;24.25;59.41;99525.62;4435705;32;34693;-62
2023/07/04 05:22:56;;;;;;;7.85;4.65;;;;;;;24.26;59.69;99535.50;4433811;32;33645;-62
2023/07/04 05:25:24;;;;;;;12.23;5.47;;;;;;;24.30;59.55;99538.66;4434549;32;33080;-62
2023/07/04 05:27:52;;;;;;;8.43;4.93;;;;;;;24.30;59.36;99546.88;4434954;32;33319;-62
2023/07/04 05:30:22;;;;;;;9.35;5.43;;;;;;;24.17;60.22;99553.16;4434429;32;33846;-62
2023/07/04 05:32:50;;;;;;;13.10;5.72;;;;;;;24.27;59.81;99555.47;4434195;32;34076;-62
2023/07/04 05:35:18;;;;;;;10.45;5.18;;;;;;;23.93;61.09;99560.06;4435949;32;34225;-62
2023/07/04 05:37:45;;;;;;;14.63;6.72;;;;;;;24.21;60.50;99557.19;4435599;32;33526;-62
2023/07/04 05:40:13;;;;;;;11.30;5.30;;;;;;;24.27;60.51;99564.56;4434021;32;33579;-62
2023/07/04 05:42:41;;;;;;;10.88;6.00;;;;;;;24.33;60.05;99560.13;4433564;32;34870;-62
2023/07/04 05:45:09;;;;;;;9.70;4.47;;;;;;;24.28;60.15;99559.94;4434687;32;33001;-62
2023/07/04 05:47:37;;;;;;;8.98;4.20;;;;;;;24.31;59.67;99562.25;4436051;32;33977;-61
2023/07/04 05:50:05;;;;;;;9.02;5.22;;;;;;;24.30;59.61;99566.87;4435725;32;33631;-62
2023/07/04 05:52:32;;;;;;;9.90;4.82;;;;;;;24.24;59.80;99567.72;4434398;32;34824;-62
2023/07/04 05:55:00;;;;;;;10.40;4.32;;;;;;;24.09;60.39;99567.03;4431888;32;35253;-62
2023/07/04 05:57:32;;;;;;;7.50;4.35;;;;;;;24.25;59.92;99571.28;4431620;32;34735;-62
2023/07/04 05:59:59;;;;;;;10.82;5.12;;;;;;;24.11;59.89;99570.41;4435348;32;34053;-62
2023/07/04 06:02:27;;;;;;;12.00;4.22;;;;;;;24.17;59.39;99572.28;4436154;32;33774;-62
2023/07/04 06:04:55;;;;;;;10.40;4.53;;;;;;;24.15;60.05;99577.16;4433754;32;34253;-62
2023/07/04 06:07:22;;;;;;;8.43;4.03;;;;;;;24.24;59.75;99570.44;4425181;32;34462;-62
2023/07/04 06:09:50;;;;;;;14.20;5.55;;;;;;;24.26;59.66;99578.41;4433603;32;35554;-62
2023/07/04 06:12:18;;;;;;;16.23;4.47;;;;;;;24.23;59.62;99582.41;4434247;32;34898;-62
2023/07/04 06:14:45;;;;;;;9.85;4.95;;;;;;;23.71;61.88;99581.19;4433057;32;34041;-62
2023/07/04 06:17:13;;;;;;;10.20;5.15;;;;;;;24.06;60.66;99578.38;4425384;32;33951;-62
2023/07/04 06:19:41;;;;;;;13.52;6.20;;;;;;;24.01;60.84;99578.16;4431124;32;35421;-62
2023/07/04 06:22:08;;;;;;;12.40;6.22;;;;;;;24.06;60.74;99581.13;4434725;32;34591;-62
2023/07/04 06:24:36;;;;;;;10.00;5.87;;;;;;;24.23;60.22;99579.66;4436429;32;34589;-62
2023/07/04 06:27:05;;;;;;;8.48;5.00;;;;;;;24.04;61.09;99573.09;4433476;32;34778;-62
2023/07/04 06:29:32;;;;;;;12.25;6.30;;;;;;;24.24;60.50;99573.19;4431477;32;34844;-62
2023/07/04 06:32:00;;;;;;;12.98;7.10;;;;;;;24.30;60.61;99575.09;4431495;32;34552;-62
2023/07/04 06:34:28;;;;;;;8.82;5.05;;;;;;;24.36;60.58;99578.84;4432634;32;33105;-62
2023/07/04 06:36:56;;;;;;;11.93;5.90;;;;;;;24.40;60.60;99580.97;4422019;32;34068;-62
2023/07/04 06:39:23;;;;;;;11.65;5.53;;;;;;;24.42;60.48;99582.69;4433293;32;34401;-62
2023/07/04 06:41:51;;;;;;;8.13;4.68;;;;;;;24.40;60.69;99585.62;4434289;32;34940;-63
2023/07/04 06:44:19;;;;;;;9.35;4.82;;;;;;;24.15;60.69;99583.44;4433215;32;33513;-62
2023/07/04 06:46:47;;;;;;;8.57;4.35;;;;;;;24.45;59.82;99579.53;4434186;32;34070;-62
2023/07/04 06:49:15;;;;;;;11.70;4.40;;;;;;;24.44;59.67;99586.06;4434216;32;35290;-62
2023/07/04 06:51:42;;;;;;;11.88;5.28;;;;;;;24.55;59.40;99588.16;4433638;32;33677;-63
2023/07/04 06:54:10;;;;;;;14.77;4.70;;;;;;;24.50;59.69;99587.97;4433658;32;32920;-62
2023/07/04 06:56:38;;;;;;;8.77;4.20;;;;;;;24.50;60.08;99587.97;4432585;32;33735;-62
2023/07/04 06:59:06;;;;;;;15.05;5.15;;;;;;;24.48;60.02;99582.69;4430179;32;33623;-62
2023/07/04 07:01:34;;;;;;;10.50;4.05;;;;;;;24.53;59.25;99590.28;4432365;32;34930;-62
2023/07/04 07:04:03;;;;;;;7.47;4.07;;;;;;;24.51;59.36;99586.91;4432229;32;34252;-63
2023/07/04 07:06:31;;;;;;;6.53;3.42;;;;;;;24.59;59.28;99590.28;4428727;32;35283;-62
2023/07/04 07:08:59;;;;;;;8.45;3.65;;;;;;;24.54;59.32;99586.50;4429555;32;35273;-63
2023/07/04 07:11:27;;;;;;;10.93;4.47;;;;;;;24.58;58.86;99583.13;4432122;32;33543;-63
2023/07/04 07:13:55;;;;;;;7.82;4.10;;;;;;;24.62;58.97;99581.66;4434303;32;32125;-62
2023/07/04 07:16:24;;;;;;;8.98;4.30;;;;;;;24.66;59.28;99579.34;4435562;32;34313;-62
2023/07/04 07:18:53;;;;;;;7.53;4.45;;;;;;;24.70;58.85;99579.78;4428665;32;35358;-63
2023/07/04 07:21:24;;;;;;;11.23;3.70;;;;;;;24.70;58.89;99579.78;4432457;32;33449;-63
2023/07/04 07:23:53;;;;;;;14.35;4.53;;;;;;;24.70;59.20;99586.09;4436400;32;34097;-63
2023/07/04 07:26:26;;;;;;;12.70;4.68;;;;;;;24.64;59.94;99578.72;4429843;32;33841;-63
2023/07/04 07:28:55;;;;;;;10.10;4.68;;;;;;;24.66;60.62;99573.03;4434693;32;33645;-62
2023/07/04 07:31:25;;;;;;;10.00;4.37;;;;;;;24.77;60.31;99577.88;4434031;32;35383;-63
2023/07/04 07:34:01;;;;;;;7.57;3.40;;;;;;;24.74;60.43;99581.87;4432838;32;33767;-63
2023/07/04 07:36:46;;;;;;;6.53;3.30;;;;;;;24.63;59.81;99575.13;4433184;32;33632;-63
2023/07/04 07:39:16;;;;;;;6.55;3.22;;;;;;;24.58;59.55;99574.91;4434585;32;33616;-63
2023/07/04 07:41:46;;;;;;;8.55;4.45;;;;;;;24.76;59.29;99577.03;4432175;32;33665;-63
2023/07/04 07:44:15;;;;;;;7.65;3.35;;;;;;;24.86;59.06;99574.72;4436693;32;32932;-63
2023/07/04 07:46:44;;;;;;;15.25;4.70;;;;;;;24.47;59.73;99581.03;4431751;32;33613;-63
2023/07/04 07:49:12;;;;;;;11.77;4.35;;;;;;;24.20;60.77;99577.34;4429124;32;35157;-63
2023/07/04 07:51:41;;;;;;;7.22;4.10;;;;;;;24.58;59.73;99583.13;4426820;32;134527;-63
2023/07/04 07:54:10;;;;;;;7.55;4.00;;;;;;;24.75;59.66;99582.69;4435604;32;33436;-63
2023/07/04 07:56:41;;;;;;;11.98;5.18;;;;;;;24.86;59.40;99593.03;4433546;32;33730;-63
2023/07/04 07:59:09;;;;;;;9.45;3.67;;;;;;;24.80;59.45;99593.88;4434202;32;33951;-63
2023/07/04 08:01:37;;;;;;;7.40;3.80;;;;;;;24.95;59.09;99590.94;4428176;32;34544;-63
2023/07/04 08:04:05;;;;;;;7.50;3.67;;;;;;;24.98;58.66;99602.28;4430734;32;33162;-63
2023/07/04 08:06:36;;;;;;;7.12;3.28;;;;;;;24.95;58.69;99601.88;4424077;32;35057;-63
2023/07/04 08:09:06;;;;;;;5.82;3.20;;;;;;;24.93;57.62;99613.03;4421311;32;32481;-63
2023/07/04 08:11:34;;;;;;;8.52;3.72;;;;;;;24.87;57.72;99602.91;4433932;32;32542;-63
2023/07/04 08:14:02;;;;;;;11.02;3.72;;;;;;;24.85;57.95;99607.78;4432786;32;33320;-62
2023/07/04 08:16:39;;;;;;;10.05;4.05;;;;;;;24.79;58.54;99608.62;4427041;32;34946;-62
2023/07/04 08:19:07;;;;;;;8.57;4.25;;;;;;;24.88;58.35;99612.84;4428529;32;34092;-61
2023/07/04 08:21:35;;;;;;;12.80;3.97;;;;;;;24.90;58.34;99607.97;4431752;32;34286;-61
2023/07/04 08:24:10;;;;;;;8.32;4.05;;;;;;;24.85;58.04;99616.00;4428430;32;33695;-61
2023/07/04 08:26:41;;;;;;;;;;;;;;;24.75;58.30;99627.34;4425518;32;33965;-61
2023/07/04 08:29:09;;;;;;;7.22;3.30;;;;;;;24.82;57.93;99617.25;4430340;32;34499;-61
2023/07/04 08:31:36;;;;;;;7.03;3.17;;;;;;;24.67;58.62;99610.28;4432922;32;33588;-61
2023/07/04 08:34:05;;;;;;;6.43;4.22;;;;;;;24.84;58.41;99608.81;4434649;32;34041;-62
2023/07/04 08:36:33;;;;;;;11.32;4.75;;;;;;;24.92;58.50;99610.50;4431505;32;33671;-62
2023/07/04 08:39:01;;;;;;;8.90;4.28;;;;;;;24.96;58.73;99609.88;4433281;32;33737;-62
2023/07/04 08:41:44;;;;;;;11.32;4.87;;;;;;;24.94;58.87;99606.47;4435159;32;33936;-62
2023/07/04 08:44:20;;;;;;;8.18;4.28;;;;;;;24.94;58.97;99602.91;4430878;32;33157;-62
2023/07/04 08:46:50;;;;;;;9.02;4.00;;;;;;;24.97;59.01;99603.31;4429391;32;35034;-61
2023/07/04 08:49:34;;;;;;;11.15;4.57;;;;;;;24.99;59.19;99601.22;4431583;32;33917;-63
2023/07/04 08:52:07;;;;;;;8.52;3.72;;;;;;;25.03;59.81;99609.84;4435007;32;33117;-63
2023/07/04 08:54:35;;;;;;;5.93;3.72;;;;;;;25.03;59.46;99599.75;4433977;32;33354;-63
2023/07/04 08:57:11;;;;;;;9.65;3.72;;;;;;;25.05;58.83;99605.88;4428396;32;33567;-63
2023/07/04 08:59:41;;;;;;;8.10;3.97;;;;;;;25.14;58.49;99609.25;4424634;32;35049;-64
2023/07/04 09:02:29;;;;;;;8.30;4.90;;;;;;;25.16;58.61;99607.13;4434110;32;34724;-63
2023/07/04 09:05:04;;;;;;;7.00;3.67;;;;;;;25.15;58.95;99605.47;4427852;32;33267;-63
2023/07/04 09:07:41;;;;;;;8.80;4.60;;;;;;;25.16;58.75;99598.91;4430835;32;33718;-63
2023/07/04 09:10:20;;;;;;;8.77;3.55;;;;;;;25.11;58.46;99604.19;4427736;32;33748;-63
2023/07/04 09:12:48;;;;;;;10.32;4.78;;;;;;;25.14;58.47;99603.78;4431370;32;33699;-63
2023/07/04 09:15:43;;;;;;;7.80;3.95;;;;;;;25.08;58.23;99599.13;4428956;32;33825;-64
2023/07/04 09:18:30;;;;;;;10.77;4.40;;;;;;;25.12;58.11;99614.09;4387122;32;35138;-64
2023/07/04 09:21:19;;;;;;;8.95;4.00;;;;;;;25.25;57.54;99616.81;4382314;32;33629;-63
2023/07/04 09:23:48;;;;;;;7.55;3.42;;;;;;;25.22;57.67;99616.41;4376412;32;33394;-63
2023/07/04 09:26:28;;;;;;;7.43;3.80;;;;;;;25.26;57.63;99618.50;4388687;32;32955;-63
2023/07/04 09:28:56;;;;;;;8.18;3.83;;;;;;;25.28;56.50;99621.88;4353679;32;34174;-64
2023/07/04 09:31:29;;;;;;;8.43;4.53;;;;;;;25.28;56.21;99618.28;4362572;32;34330;-63
2023/07/04 09:34:01;;;;;;;7.57;3.60;;;;;;;25.36;56.22;99617.22;4325847;33;33621;-63
2023/07/04 09:36:33;;;;;;;8.25;3.80;;;;;;;25.42;56.31;99617.19;4284751;33;34816;-64
2023/07/04 09:39:04;;;;;;;9.10;4.37;;;;;;;25.37;57.75;99614.28;4280022;33;33433;-64
2023/07/04 09:41:33;;;;;;;9.13;3.83;;;;;;;25.49;57.44;99617.19;4277996;33;33563;-63
2023/07/04 09:44:19;;;;;;;8.88;4.68;;;;;;;25.56;57.26;99616.12;4282379;33;34384;-63
2023/07/04 09:46:49;;;;;;;8.48;3.87;;;;;;;25.35;56.24;99605.41;4282265;33;33119;-63
2023/07/04 09:49:25;;;;;;;11.30;4.55;;;;;;;25.46;57.14;99607.50;4289063;33;34732;-63
2023/07/04 09:52:03;;;;;;;13.20;4.03;;;;;;;25.60;56.36;99612.94;4281548;33;35185;-63
2023/07/04 09:54:39;;;;;;;7.12;3.83;;;;;;;25.73;55.82;99612.91;4288389;33;36365;-64
2023/07/04 09:57:26;;;;;;;8.43;4.20;;;;;;;25.70;55.01;99610.59;4311210;33;33315;-64
2023/07/04 10:00:15;;;;;;;6.30;3.28;;;;;;;25.68;55.17;99609.94;4311692;33;33525;-64
2023/07/04 10:02:43;;;;;;;7.82;3.95;;;;;;;25.67;55.38;99609.12;4319475;33;34174;-64
2023/07/04 10:05:23;;;;;;;7.68;4.25;;;;;;;25.76;56.15;99610.56;4298514;33;34521;-64
2023/07/04 10:08:02;;;;;;;5.35;3.08;;;;;;;25.89;54.90;99601.47;4349787;32;33293;-63
2023/07/04 10:10:32;;;;;;;7.45;3.53;;;;;;;25.88;54.77;99597.06;4364895;32;33513;-63
2023/07/04 10:13:00;;;;;;;9.18;3.70;;;;;;;25.90;55.02;99602.31;4407976;32;34712;-64
2023/07/04 10:15:37;;;;;;;6.97;3.72;;;;;;;26.00;54.26;99597.19;4413080;32;33674;-63
2023/07/04 10:18:06;;;;;;;9.13;4.05;;;;;;;26.22;54.03;99604.03;4410995;32;35215;-63
2023/07/04 10:20:40;;;;;;;5.43;2.70;;;;;;;26.23;54.70;99600.25;4408568;32;33201;-64
2023/07/04 10:23:08;;;;;;;7.78;3.00;;;;;;;26.38;53.73;99594.44;4428018;32;34077;-64
2023/07/04 10:25:35;;;;;;;6.90;3.37;;;;;;;26.55;53.88;99593.94;4428588;32;33469;-63
2023/07/04 10:28:12;;;;;;;10.18;4.07;;;;;;;26.41;53.59;99594.00;4430139;32;33496;-64
2023/07/04 10:30:42;;;;;;;7.25;3.62;;;;;;;26.32;53.41;99591.75;4430672;32;33502;-63
2023/07/04 10:33:17;;;;;;;6.03;2.85;;;;;;;26.47;53.21;99593.12;4431222;32;33395;-63
2023/07/04 10:35:47;;;;;;;7.15;3.20;;;;;;;26.25;52.29;99589.03;4421734;32;34280;-63
2023/07/04 10:38:43;;;;;;;5.80;3.17;;;;;;;26.63;53.29;99588.19;4425933;32;32240;-63
2023/07/04 10:41:16;;;;;;;6.80;3.75;;;;;;;26.63;53.00;99588.19;4428732;32;34675;-63
2023/07/04 10:43:48;;;;;;;6.32;3.25;;;;;;;26.83;52.43;99586.09;4428016;32;33652;-64
2023/07/04 10:46:21;;;;;;;10.00;2.80;;;;;;;26.97;51.69;99589.59;4429720;32;33316;-63
2023/07/04 10:48:56;;;;;;;7.93;3.22;;;;;;;27.14;51.48;99587.13;4425083;32;33025;-64
2023/07/04 10:51:32;;;;;;;8.02;3.58;;;;;;;27.20;51.10;99582.66;4427554;32;34646;-63
2023/07/04 10:54:00;;;;;;;7.40;4.25;;;;;;;27.22;49.26;99581.34;4430681;32;34785;-63
2023/07/04 10:56:32;;;;;;;8.40;4.18;;;;;;;27.05;50.34;99575.56;4426217;32;33655;-63
2023/07/04 10:59:04;;;;;;;8.35;3.47;;;;;;;27.24;50.62;99581.94;4429583;32;32098;-63
2023/07/04 11:01:37;;;;;;;7.25;4.12;;;;;;;27.05;50.80;99578.31;4432291;32;34628;-63
2023/07/04 11:04:22;;;;;;;7.43;3.47;;;;;;;27.40;51.10;99566.78;4433688;32;34281;-62
2023/07/04 11:06:59;;;;;;;6.28;3.60;;;;;;;27.55;51.64;99577.41;4422967;32;34613;-63
2023/07/04 11:09:33;;;;;;;5.55;3.37;;;;;;;27.39;49.74;99585.19;4420675;32;33322;-63
2023/07/04 11:12:05;;;;;;;8.52;3.33;;;;;;;27.70;49.46;99577.00;4413836;32;33773;-63
2023/07/04 11:14:37;;;;;;;5.62;3.03;;;;;;;27.67;48.40;99563.72;4418881;32;34276;-62
2023/07/04 11:17:13;;;;;;;6.65;2.47;;;;;;;27.59;49.52;99571.19;4401402;32;33442;-62
2023/07/04 11:20:22;;;;;;;7.20;2.55;;;;;;;27.51;46.07;99567.91;4412592;32;32853;-61
2023/07/04 11:22:50;;;;;;;6.22;2.92;;;;;;;27.60;45.83;99572.03;4366430;32;34133;-62
2023/07/04 11:25:53;;;;;;;5.28;2.22;;;;;;;27.68;46.55;99570.91;4369378;32;34236;-62
2023/07/04 11:28:42;;;;;;;4.30;1.95;;;;;;;27.63;44.71;99569.66;4369281;32;34828;-61
2023/07/04 11:31:23;;;;;;;5.65;2.47;;;;;;;27.79;45.69;99570.97;4368334;32;33364;-62
2023/07/04 11:33:53;;;;;;;5.97;2.83;;;;;;;27.85;46.36;99567.31;4351569;32;34291;-62
2023/07/04 11:36:33;;;;;;;5.75;2.60;;;;;;;27.81;46.04;99568.00;4370835;32;34229;-62
2023/07/04 11:39:05;;;;;;;5.72;3.08;;;;;;;27.90;44.92;99563.00;4366968;32;35692;-62
2023/07/04 11:41:37;;;;;;;4.87;2.60;;;;;;;27.75;44.75;99564.25;4367071;32;34121;-62
2023/07/04 11:45:03;;;;;;;5.97;2.42;;;;;;;27.66;45.82;99564.78;4394849;32;33460;-63
2023/07/04 11:47:51;;;;;;;4.35;2.12;;;;;;;27.83;46.44;99565.84;4358902;32;34918;-62
2023/07/04 11:50:21;;;;;;;4.15;1.77;;;;;;;27.71;45.24;99565.78;4356040;32;34220;-62